Time;durP1;ratioP1;P1;durP2;ratioP2;P2;SDS_P1;SDS_P2;PMS_P1;PMS_P2;Temp;Humidity;BMP_temperature;BMP_pressure;BME280_temperature;BME280_humidity;BME280_pressure;Samples;Min_cycle;Max_cycle;Signal;HPM_P1;HPM_P2
2023/03/18 00:01:33;;;;;;;21.42;15.23;;;9.90;99.90;;;;;;4807761;29;20053;-74
2023/03/18 00:04:00;;;;;;;20.73;15.25;;;9.80;99.90;;;;;;4821690;29;20041;-74
2023/03/18 00:06:26;;;;;;;23.02;15.63;;;9.70;99.90;;;;;;4822233;29;20506;-74
2023/03/18 00:08:52;;;;;;;22.88;16.00;;;9.60;99.90;;;;;;4835865;29;20120;-73
2023/03/18 00:11:20;;;;;;;22.73;15.40;;;9.50;99.90;;;;;;4817357;29;20187;-74
2023/03/18 00:13:47;;;;;;;23.73;15.48;;;9.40;99.90;;;;;;4820880;29;20071;-74
2023/03/18 00:16:13;;;;;;;25.85;15.68;;;9.30;99.90;;;;;;4819563;29;20378;-74
2023/03/18 00:18:41;;;;;;;21.93;15.30;;;9.30;99.90;;;;;;4802199;29;20042;-74
2023/03/18 00:21:08;;;;;;;20.63;16.73;;;9.20;99.90;;;;;;4830891;29;20286;-74
2023/03/18 00:23:35;;;;;;;23.55;15.93;;;9.10;99.90;;;;;;4817418;29;20053;-74
2023/03/18 00:26:01;;;;;;;24.10;15.60;;;9.10;99.90;;;;;;4821123;29;20042;-74
2023/03/18 00:28:28;;;;;;;21.80;14.90;;;9.00;99.90;;;;;;4818957;29;20149;-74
2023/03/18 00:30:55;;;;;;;22.10;16.15;;;8.90;99.90;;;;;;4824574;29;20472;-74
2023/03/18 00:33:22;;;;;;;21.77;15.65;;;8.90;99.90;;;;;;4807394;29;20045;-74
2023/03/18 00:35:48;;;;;;;21.40;15.95;;;8.80;99.90;;;;;;4831943;29;20052;-73
2023/03/18 00:38:19;;;;;;;23.53;16.57;;;8.70;99.90;;;;;;4820297;29;20042;-73
2023/03/18 00:41:00;;;;;;;25.52;16.80;;;8.70;99.90;;;;;;4839604;29;20052;-73
2023/03/18 00:43:28;;;;;;;22.13;16.33;;;8.70;99.90;;;;;;4824026;29;20053;-74
2023/03/18 00:45:57;;;;;;;22.60;16.35;;;8.60;99.90;;;;;;4820312;29;20037;-74
2023/03/18 00:48:24;;;;;;;26.38;18.55;;;8.60;99.90;;;;;;4820091;29;20526;-74
2023/03/18 00:50:50;;;;;;;23.48;18.45;;;8.50;99.90;;;;;;4824625;29;20436;-74
2023/03/18 00:53:17;;;;;;;30.73;18.83;;;8.50;99.90;;;;;;4821757;29;20506;-74
2023/03/18 00:55:43;;;;;;;25.23;18.48;;;8.50;99.90;;;;;;4809786;29;20042;-74
2023/03/18 00:58:11;;;;;;;26.05;19.77;;;8.50;99.90;;;;;;4824651;29;20038;-74
2023/03/18 01:00:38;;;;;;;30.75;21.13;;;8.50;99.90;;;;;;4840579;29;20073;-74
2023/03/18 01:03:05;;;;;;;26.77;20.45;;;8.40;99.90;;;;;;4822499;29;20050;-74
2023/03/18 01:05:32;;;;;;;33.50;21.23;;;8.40;99.90;;;;;;4822646;29;20045;-73
2023/03/18 01:07:58;;;;;;;30.80;22.23;;;8.40;99.90;;;;;;4802571;29;20129;-74
2023/03/18 01:10:26;;;;;;;29.33;21.45;;;8.30;99.90;;;;;;4822745;29;20049;-74
2023/03/18 01:12:52;;;;;;;31.75;23.88;;;8.20;99.90;;;;;;4821345;29;20111;-73
2023/03/18 01:15:20;;;;;;;35.08;23.23;;;8.10;99.90;;;;;;4806119;29;20070;-73
2023/03/18 01:17:46;;;;;;;34.30;23.80;;;8.00;99.90;;;;;;4835938;29;20434;-73
2023/03/18 01:20:16;;;;;;;33.57;22.93;;;7.90;99.90;;;;;;4807983;29;20117;-73
2023/03/18 01:22:41;;;;;;;32.67;23.73;;;7.80;99.90;;;;;;4838048;29;20313;-73
2023/03/18 01:25:09;;;;;;;36.23;25.03;;;7.70;99.90;;;;;;4837675;29;20067;-73
2023/03/18 01:27:36;;;;;;;36.55;26.20;;;7.60;99.90;;;;;;4823944;29;20306;-73
2023/03/18 01:30:03;;;;;;;38.03;25.65;;;7.60;99.90;;;;;;4817438;29;20597;-73
2023/03/18 01:32:29;;;;;;;35.20;26.50;;;7.50;99.90;;;;;;4809116;29;20045;-73
2023/03/18 01:34:55;;;;;;;33.23;26.37;;;7.50;99.90;;;;;;4839313;29;20524;-73
2023/03/18 01:37:21;;;;;;;37.80;27.35;;;7.40;99.90;;;;;;4808585;29;20038;-73
2023/03/18 01:39:47;;;;;;;36.83;26.40;;;7.40;99.90;;;;;;4805621;29;20041;-73
2023/03/18 01:42:13;;;;;;;35.87;26.90;;;7.40;99.90;;;;;;4819989;29;20185;-73
2023/03/18 01:44:39;;;;;;;38.33;26.80;;;7.30;99.90;;;;;;4814868;29;20046;-73
2023/03/18 01:47:06;;;;;;;42.20;29.10;;;7.30;99.90;;;;;;4820256;29;20042;-73
2023/03/18 01:49:39;;;;;;;36.90;27.90;;;7.30;99.90;;;;;;4839852;29;20061;-73
2023/03/18 01:52:26;;;;;;;43.90;29.58;;;7.30;99.90;;;;;;4837574;29;20056;-73
2023/03/18 01:54:59;;;;;;;41.15;29.83;;;7.30;99.90;;;;;;4839190;29;20577;-73
2023/03/18 01:57:26;;;;;;;41.97;30.00;;;7.30;99.90;;;;;;4823939;29;20042;-73
2023/03/18 01:59:54;;;;;;;41.75;29.75;;;7.30;99.90;;;;;;4824080;29;20048;-73
2023/03/18 02:02:20;;;;;;;41.53;30.60;;;7.30;99.90;;;;;;4810663;29;20503;-73
2023/03/18 02:04:52;;;;;;;41.40;29.10;;;7.20;99.90;;;;;;4854367;29;20079;-73
2023/03/18 02:07:29;;;;;;;41.22;30.65;;;7.20;99.90;;;;;;4824972;29;20128;-73
2023/03/18 02:09:58;;;;;;;44.42;32.17;;;7.10;99.90;;;;;;4822237;29;20056;-73
2023/03/18 02:12:37;;;;;;;47.38;32.67;;;7.10;99.90;;;;;;4824272;29;20514;-74
2023/03/18 02:15:06;;;;;;;43.80;32.17;;;7.10;99.90;;;;;;4823400;29;20076;-73
2023/03/18 02:17:35;;;;;;;47.30;33.30;;;7.00;99.90;;;;;;4834702;29;20118;-73
2023/03/18 02:20:10;;;;;;;48.08;32.97;;;7.00;99.90;;;;;;4837777;29;20513;-73
2023/03/18 02:22:40;;;;;;;52.25;33.47;;;6.90;99.90;;;;;;4823471;29;20490;-73
2023/03/18 02:25:09;;;;;;;47.55;32.05;;;6.80;99.90;;;;;;4837709;29;20133;-74
2023/03/18 02:27:38;;;;;;;53.58;33.85;;;6.70;99.90;;;;;;4823061;29;20057;-73
2023/03/18 02:30:19;;;;;;;51.08;35.90;;;6.70;99.90;;;;;;4838171;29;20422;-73
2023/03/18 02:32:47;;;;;;;53.03;34.92;;;6.60;99.90;;;;;;4820216;29;20901;-73
2023/03/18 02:35:13;;;;;;;50.58;34.25;;;6.60;99.90;;;;;;4821778;29;20049;-73
2023/03/18 02:37:39;;;;;;;53.78;35.88;;;6.60;99.90;;;;;;4822793;29;20052;-73
2023/03/18 02:40:27;;;;;;;49.93;33.57;;;6.60;99.90;;;;;;4821069;29;20049;-73
2023/03/18 02:42:53;;;;;;;52.38;35.97;;;6.50;99.90;;;;;;4837908;29;20109;-73
2023/03/18 02:45:43;;;;;;;49.45;34.25;;;6.40;99.90;;;;;;4838129;29;20503;-73
2023/03/18 02:48:14;;;;;;;52.70;34.63;;;6.40;99.90;;;;;;4832699;29;20084;-74
2023/03/18 02:50:40;;;;;;;56.17;36.67;;;6.30;99.90;;;;;;4835256;29;20101;-73
2023/03/18 02:53:07;;;;;;;56.53;35.47;;;6.20;99.90;;;;;;4822814;29;20053;-73
2023/03/18 02:55:33;;;;;;;52.10;35.83;;;6.30;99.90;;;;;;4808230;29;20530;-74
2023/03/18 02:57:59;;;;;;;52.07;35.13;;;6.30;99.90;;;;;;4816830;29;20046;-74
2023/03/18 03:00:25;;;;;;;52.00;34.53;;;6.20;99.90;;;;;;4820755;29;20051;-73
2023/03/18 03:02:51;;;;;;;50.97;34.10;;;6.20;99.90;;;;;;4835220;29;20045;-73
2023/03/18 03:05:17;;;;;;;51.73;34.07;;;6.20;99.90;;;;;;4804527;29;20049;-73
2023/03/18 03:07:42;;;;;;;51.57;34.53;;;6.20;99.90;;;;;;4831628;29;20474;-73
2023/03/18 03:10:09;;;;;;;50.70;34.73;;;6.10;99.90;;;;;;4838239;29;20098;-73
2023/03/18 03:12:36;;;;;;;54.47;34.38;;;6.20;99.90;;;;;;4823232;29;20041;-73
2023/03/18 03:15:04;;;;;;;58.63;37.22;;;6.10;99.90;;;;;;4820175;29;20129;-73
2023/03/18 03:17:30;;;;;;;60.08;36.20;;;6.10;99.90;;;;;;4801341;29;20557;-73
2023/03/18 03:19:56;;;;;;;50.80;34.50;;;6.10;99.90;;;;;;4812954;29;20584;-73
2023/03/18 03:22:22;;;;;;;54.67;35.35;;;6.10;99.90;;;;;;4805579;29;20456;-73
2023/03/18 03:24:48;;;;;;;53.70;34.40;;;6.10;99.90;;;;;;4802714;29;20114;-73
2023/03/18 03:27:13;;;;;;;51.63;34.00;;;6.10;99.90;;;;;;4807175;29;20041;-73
2023/03/18 03:29:39;;;;;;;47.80;31.93;;;6.10;99.90;;;;;;4807461;29;20436;-74
2023/03/18 03:32:05;;;;;;;47.90;33.33;;;6.10;99.90;;;;;;4804577;29;20090;-74
2023/03/18 03:34:32;;;;;;;54.92;33.03;;;6.10;99.90;;;;;;4833797;29;20414;-74
2023/03/18 03:36:58;;;;;;;52.28;32.00;;;6.10;99.90;;;;;;4804109;29;20041;-74
2023/03/18 03:39:24;;;;;;;50.27;33.10;;;6.10;99.90;;;;;;4822879;29;20329;-74
2023/03/18 03:41:50;;;;;;;52.47;33.63;;;6.20;99.90;;;;;;4802144;29;20133;-74
2023/03/18 03:44:16;;;;;;;55.67;34.10;;;6.20;99.90;;;;;;4817189;29;20048;-73
2023/03/18 03:46:41;;;;;;;48.30;31.77;;;6.20;99.90;;;;;;4807109;29;20080;-73
2023/03/18 03:49:07;;;;;;;54.67;32.67;;;6.10;99.90;;;;;;4841135;29;20084;-73
2023/03/18 03:51:33;;;;;;;50.53;31.13;;;6.10;99.90;;;;;;4809561;29;20521;-73
2023/03/18 03:53:58;;;;;;;54.70;31.63;;;6.00;99.90;;;;;;4810495;29;20049;-73
2023/03/18 03:56:24;;;;;;;55.87;32.03;;;6.00;99.90;;;;;;4825742;29;20136;-73
2023/03/18 03:58:50;;;;;;;53.07;32.63;;;6.00;99.90;;;;;;4810884;29;20053;-73
2023/03/18 04:01:16;;;;;;;55.33;31.98;;;6.00;99.90;;;;;;4839497;29;20073;-73
2023/03/18 04:03:42;;;;;;;61.90;34.03;;;6.00;99.90;;;;;;4805947;29;20081;-73
2023/03/18 04:06:07;;;;;;;61.70;33.40;;;6.10;99.90;;;;;;4800349;29;20166;-73
2023/03/18 04:08:33;;;;;;;66.37;35.20;;;6.20;99.90;;;;;;4840907;29;20041;-73
2023/03/18 04:10:59;;;;;;;63.20;33.77;;;6.30;99.90;;;;;;4811566;29;20049;-73
2023/03/18 04:13:25;;;;;;;66.07;35.00;;;6.40;99.90;;;;;;4810043;29;20045;-73
2023/03/18 04:15:50;;;;;;;67.07;34.00;;;6.50;99.90;;;;;;4821404;29;20543;-73
2023/03/18 04:18:16;;;;;;;68.83;35.40;;;6.70;99.90;;;;;;4840061;29;20132;-73
2023/03/18 04:20:43;;;;;;;86.07;37.27;;;6.80;99.90;;;;;;4825581;29;20490;-73
2023/03/18 04:23:09;;;;;;;96.97;36.33;;;6.90;99.90;;;;;;4809851;29;20369;-73
2023/03/18 04:25:35;;;;;;;222.87;45.97;;;7.00;99.90;;;;;;4855555;29;20526;-73
2023/03/18 04:28:01;;;;;;;163.77;35.70;;;7.10;99.90;;;;;;4821171;29;20045;-73
2023/03/18 04:30:27;;;;;;;268.40;40.63;;;7.20;99.90;;;;;;4840535;29;20426;-73
2023/03/18 04:32:53;;;;;;;365.10;45.83;;;7.30;99.90;;;;;;4810103;29;20053;-73
2023/03/18 04:35:20;;;;;;;381.80;46.90;;;7.30;99.90;;;;;;4824749;29;20042;-74
2023/03/18 04:37:46;;;;;;;221.82;42.13;;;7.30;99.90;;;;;;4809411;29;20042;-74
2023/03/18 04:40:12;;;;;;;230.40;41.63;;;7.30;99.90;;;;;;4825089;29;20395;-74
2023/03/18 04:42:38;;;;;;;146.50;36.37;;;7.30;99.90;;;;;;4821232;29;20048;-74
2023/03/18 04:45:05;;;;;;;283.73;43.97;;;7.40;99.90;;;;;;4824620;29;20053;-74
2023/03/18 04:47:32;;;;;;;384.23;47.90;;;7.40;99.90;;;;;;4823599;29;20038;-74
2023/03/18 04:49:57;;;;;;;287.92;40.83;;;7.50;99.90;;;;;;4824976;29;20055;-74
2023/03/18 04:52:23;;;;;;;486.53;53.10;;;7.50;99.90;;;;;;4825250;29;20045;-74
2023/03/18 04:54:49;;;;;;;435.10;52.20;;;7.50;99.90;;;;;;4830479;29;20049;-74
2023/03/18 04:57:16;;;;;;;347.40;47.97;;;7.60;99.90;;;;;;4808926;29;20037;-74
2023/03/18 04:59:42;;;;;;;358.25;49.03;;;7.60;99.90;;;;;;4822322;29;20478;-74
2023/03/18 05:02:08;;;;;;;389.70;55.63;;;7.60;99.90;;;;;;4822857;29;20056;-74
2023/03/18 05:04:34;;;;;;;374.67;55.20;;;7.60;99.90;;;;;;4828577;29;20041;-74
2023/03/18 05:07:00;;;;;;;356.10;55.45;;;7.70;99.90;;;;;;4823692;29;20045;-74
2023/03/18 05:09:26;;;;;;;187.10;46.77;;;7.60;99.90;;;;;;4809120;29;20056;-74
2023/03/18 05:11:52;;;;;;;193.07;48.67;;;7.60;99.90;;;;;;4808720;29;20530;-74
2023/03/18 05:14:19;;;;;;;132.65;44.78;;;7.60;99.90;;;;;;4806337;29;20122;-74
2023/03/18 05:16:44;;;;;;;128.82;44.45;;;7.60;99.90;;;;;;4836759;29;20568;-74
2023/03/18 05:19:10;;;;;;;139.10;46.07;;;7.50;99.90;;;;;;4805341;29;20037;-74
2023/03/18 05:21:36;;;;;;;128.30;45.33;;;7.50;99.90;;;;;;4809020;29;20045;-73
2023/03/18 05:24:02;;;;;;;101.43;41.45;;;7.50;99.90;;;;;;4806001;29;20042;-73
2023/03/18 05:26:28;;;;;;;131.57;43.97;;;7.40;99.90;;;;;;4838290;29;20583;-73
2023/03/18 05:28:54;;;;;;;106.23;41.17;;;7.40;99.90;;;;;;4817421;29;20054;-73
2023/03/18 05:31:20;;;;;;;89.10;40.00;;;7.40;99.90;;;;;;4824145;29;20045;-73
2023/03/18 05:33:46;;;;;;;87.40;39.73;;;7.30;99.90;;;;;;4808689;29;20294;-74
2023/03/18 05:36:13;;;;;;;78.40;37.67;;;7.30;99.90;;;;;;4803954;29;20045;-74
2023/03/18 05:38:39;;;;;;;74.18;37.78;;;7.30;99.90;;;;;;4824067;29;20454;-74
2023/03/18 05:41:06;;;;;;;63.63;35.03;;;7.30;99.90;;;;;;4820509;29;20041;-74
2023/03/18 05:43:31;;;;;;;69.07;36.47;;;7.30;99.90;;;;;;4823457;29;20072;-74
2023/03/18 05:45:57;;;;;;;62.30;35.90;;;7.30;99.90;;;;;;4837569;29;20514;-74
2023/03/18 05:48:23;;;;;;;61.30;35.20;;;7.20;99.90;;;;;;4806431;29;20045;-74
2023/03/18 05:50:50;;;;;;;60.80;34.92;;;7.20;99.90;;;;;;4820547;29;20045;-74
2023/03/18 05:53:16;;;;;;;64.15;35.60;;;7.10;99.90;;;;;;4820516;29;20248;-73
2023/03/18 05:55:42;;;;;;;65.20;35.67;;;7.10;99.90;;;;;;4821311;29;20037;-74
2023/03/18 05:58:09;;;;;;;59.63;35.60;;;7.10;99.90;;;;;;4822303;29;20041;-74
2023/03/18 06:00:36;;;;;;;59.03;34.65;;;7.00;99.90;;;;;;4808066;29;20042;-74
2023/03/18 06:03:02;;;;;;;67.70;36.15;;;7.00;99.90;;;;;;4807975;29;20053;-74
2023/03/18 06:05:29;;;;;;;65.40;37.08;;;6.90;99.90;;;;;;4805413;29;20045;-74
2023/03/18 06:07:56;;;;;;;65.25;37.53;;;6.90;99.90;;;;;;4820667;29;20058;-74
2023/03/18 06:10:23;;;;;;;64.53;37.08;;;6.90;99.90;;;;;;4822217;29;20398;-73
2023/03/18 06:12:50;;;;;;;64.68;36.20;;;6.90;99.90;;;;;;4823104;29;20041;-73
2023/03/18 06:15:17;;;;;;;63.70;35.25;;;6.80;99.90;;;;;;4819993;29;20049;-73
2023/03/18 06:17:43;;;;;;;61.95;34.50;;;6.80;99.90;;;;;;4817087;29;20089;-73
2023/03/18 06:20:10;;;;;;;61.20;35.90;;;6.80;99.90;;;;;;4804491;29;20042;-73
2023/03/18 06:22:37;;;;;;;64.97;37.45;;;6.80;99.90;;;;;;4804670;29;20047;-73
2023/03/18 06:25:06;;;;;;;57.00;34.13;;;6.80;99.90;;;;;;4821168;29;20041;-73
2023/03/18 06:27:32;;;;;;;66.70;37.95;;;6.90;99.90;;;;;;4837995;29;20061;-73
2023/03/18 06:30:01;;;;;;;61.80;36.78;;;6.90;99.90;;;;;;4819302;29;20057;-73
2023/03/18 06:32:28;;;;;;;64.55;36.88;;;7.00;99.90;;;;;;4808166;29;20129;-73
2023/03/18 06:34:55;;;;;;;66.88;38.80;;;7.00;99.90;;;;;;4852785;29;20049;-73
2023/03/18 06:37:21;;;;;;;58.90;37.60;;;7.10;99.90;;;;;;4805361;29;20046;-73
2023/03/18 06:39:46;;;;;;;67.23;39.70;;;7.20;99.90;;;;;;4822597;29;20068;-73
2023/03/18 06:42:12;;;;;;;66.87;39.33;;;7.20;99.90;;;;;;4821269;29;20037;-73
2023/03/18 06:44:41;;;;;;;67.60;39.27;;;7.30;99.90;;;;;;4838600;29;20113;-73
2023/03/18 06:47:07;;;;;;;58.85;37.80;;;7.40;99.90;;;;;;4831692;29;20050;-73
2023/03/18 06:49:33;;;;;;;63.30;39.75;;;7.40;99.90;;;;;;4816581;29;20045;-73
2023/03/18 06:51:59;;;;;;;68.33;40.30;;;7.50;99.90;;;;;;4807765;29;20048;-73
2023/03/18 06:54:25;;;;;;;57.43;39.23;;;7.60;99.90;;;;;;4834862;29;20041;-73
2023/03/18 06:56:51;;;;;;;59.92;38.33;;;7.60;99.90;;;;;;4818094;29;20057;-73
2023/03/18 06:59:18;;;;;;;61.60;39.63;;;7.70;99.90;;;;;;4805469;29;20045;-73
2023/03/18 07:01:44;;;;;;;62.63;38.67;;;7.80;99.90;;;;;;4821724;29;20071;-73
2023/03/18 07:04:10;;;;;;;60.90;39.10;;;7.90;99.90;;;;;;4807714;29;20077;-73
2023/03/18 07:06:36;;;;;;;65.72;40.38;;;7.90;99.90;;;;;;4807016;29;20458;-73
2023/03/18 07:09:02;;;;;;;59.92;40.05;;;8.00;99.90;;;;;;4823237;29;20053;-73
2023/03/18 07:11:29;;;;;;;57.72;39.08;;;8.10;99.90;;;;;;4819533;29;20084;-73
2023/03/18 07:13:54;;;;;;;60.05;40.60;;;8.20;99.90;;;;;;4823453;29;20453;-73
2023/03/18 07:16:20;;;;;;;58.70;37.20;;;8.30;99.90;;;;;;4806776;29;20528;-73
2023/03/18 07:18:46;;;;;;;58.47;38.87;;;8.40;99.90;;;;;;4819325;29;20056;-73
2023/03/18 07:21:12;;;;;;;58.50;38.13;;;8.50;99.90;;;;;;4822143;29;20041;-73
2023/03/18 07:23:39;;;;;;;54.43;37.33;;;8.60;99.90;;;;;;4806289;29;20492;-74
2023/03/18 07:26:06;;;;;;;54.80;37.20;;;8.80;99.90;;;;;;4836729;29;20290;-74
2023/03/18 07:28:31;;;;;;;54.38;36.95;;;8.80;99.90;;;;;;4811200;29;20089;-74
2023/03/18 07:30:57;;;;;;;50.37;36.00;;;8.80;99.90;;;;;;4809498;29;20049;-74
2023/03/18 07:33:23;;;;;;;52.10;34.73;;;8.80;99.90;;;;;;4806858;29;20126;-73
2023/03/18 07:35:48;;;;;;;52.60;34.60;;;8.80;99.90;;;;;;4822122;29;20037;-73
2023/03/18 07:38:14;;;;;;;49.93;35.20;;;8.80;99.90;;;;;;4805825;29;20041;-73
2023/03/18 07:40:40;;;;;;;48.10;34.17;;;8.80;99.90;;;;;;4823618;29;20053;-74
2023/03/18 07:43:06;;;;;;;47.80;33.90;;;8.80;99.90;;;;;;4822060;29;20068;-73
2023/03/18 07:45:33;;;;;;;50.70;33.70;;;8.90;99.90;;;;;;4809325;29;20053;-74
2023/03/18 07:47:59;;;;;;;53.25;34.42;;;8.90;99.90;;;;;;4823862;29;20046;-74
2023/03/18 07:50:25;;;;;;;45.23;34.43;;;9.00;99.90;;;;;;4825969;29;20052;-74
2023/03/18 07:52:50;;;;;;;47.63;33.63;;;9.00;99.90;;;;;;4808785;29;20037;-73
2023/03/18 07:55:16;;;;;;;48.37;33.77;;;9.00;99.90;;;;;;4823787;29;20041;-74
2023/03/18 07:57:42;;;;;;;48.33;33.75;;;9.10;99.90;;;;;;4823511;29;20046;-74
2023/03/18 08:00:11;;;;;;;52.40;35.67;;;9.10;99.90;;;;;;4810105;29;20553;-74
2023/03/18 08:02:37;;;;;;;51.83;34.72;;;9.20;99.90;;;;;;4841429;29;20073;-74
2023/03/18 08:05:05;;;;;;;51.38;34.65;;;9.20;99.90;;;;;;4840245;29;20142;-73
2023/03/18 08:07:32;;;;;;;49.22;33.95;;;9.30;99.90;;;;;;4831133;29;20761;-74
2023/03/18 08:09:58;;;;;;;51.05;34.50;;;9.50;99.90;;;;;;4798929;29;20132;-74
2023/03/18 08:12:24;;;;;;;48.78;35.60;;;9.60;99.90;;;;;;4801969;29;20041;-74
2023/03/18 08:14:50;;;;;;;49.05;33.33;;;9.70;99.90;;;;;;4838672;29;20049;-74
2023/03/18 08:17:16;;;;;;;42.30;32.13;;;9.80;99.90;;;;;;4803361;29;20049;-74
2023/03/18 08:19:42;;;;;;;42.58;32.25;;;9.90;99.90;;;;;;4837138;29;20724;-74
2023/03/18 08:22:08;;;;;;;44.40;31.30;;;9.90;99.90;;;;;;4824704;29;20038;-74
2023/03/18 08:24:37;;;;;;;43.35;31.15;;;9.90;99.90;;;;;;4808269;29;20174;-74
2023/03/18 08:27:04;;;;;;;42.15;30.67;;;10.00;99.90;;;;;;4848073;29;20406;-74
2023/03/18 08:29:30;;;;;;;42.53;31.40;;;10.00;99.90;;;;;;4821742;29;20069;-75
2023/03/18 08:31:56;;;;;;;40.47;30.97;;;10.00;99.90;;;;;;4824641;29;20052;-74
2023/03/18 08:34:22;;;;;;;39.23;29.80;;;10.00;99.90;;;;;;4823627;29;20333;-74
2023/03/18 08:36:48;;;;;;;41.00;30.40;;;10.00;99.90;;;;;;4854110;29;20053;-74
2023/03/18 08:39:14;;;;;;;43.38;30.60;;;10.00;99.90;;;;;;4825558;29;20104;-74
2023/03/18 08:41:40;;;;;;;38.63;30.02;;;10.00;99.90;;;;;;4855431;29;20049;-73
2023/03/18 08:44:09;;;;;;;45.30;32.53;;;10.10;99.90;;;;;;4804063;29;20041;-74
2023/03/18 08:46:36;;;;;;;42.78;31.85;;;10.10;99.90;;;;;;4821975;29;20463;-74
2023/03/18 08:49:02;;;;;;;39.47;30.57;;;10.20;99.90;;;;;;4822410;29;20063;-74
2023/03/18 08:51:28;;;;;;;40.73;29.93;;;10.20;99.90;;;;;;4834421;29;20305;-74
2023/03/18 08:53:54;;;;;;;37.87;28.83;;;10.30;99.90;;;;;;4821044;29;20380;-74
2023/03/18 08:56:20;;;;;;;39.67;28.40;;;10.40;99.90;;;;;;4822765;29;20761;-74
2023/03/18 08:58:47;;;;;;;42.70;30.77;;;10.50;99.90;;;;;;4835877;29;20324;-74
2023/03/18 09:01:12;;;;;;;44.77;30.67;;;10.60;99.90;;;;;;4807679;29;20044;-74
2023/03/18 09:03:39;;;;;;;38.60;30.33;;;10.70;99.90;;;;;;4821708;29;20283;-74
2023/03/18 09:06:05;;;;;;;39.53;28.33;;;10.70;99.90;;;;;;4821594;29;20128;-74
2023/03/18 09:08:32;;;;;;;37.67;28.60;;;10.80;99.90;;;;;;4822178;29;21150;-74
2023/03/18 09:10:58;;;;;;;39.10;28.00;;;10.90;99.90;;;;;;4824583;29;20290;-74
2023/03/18 09:13:25;;;;;;;36.27;29.77;;;11.00;99.90;;;;;;4854786;29;20790;-74
2023/03/18 09:15:50;;;;;;;37.77;28.87;;;11.10;99.90;;;;;;4839219;29;20393;-74
2023/03/18 09:18:17;;;;;;;40.73;29.23;;;11.10;99.90;;;;;;4800835;29;21521;-74
2023/03/18 09:20:45;;;;;;;36.03;29.00;;;11.10;99.90;;;;;;4832713;29;20117;-74
2023/03/18 09:23:12;;;;;;;39.20;29.77;;;11.20;99.90;;;;;;4805735;29;20302;-74
2023/03/18 09:25:41;;;;;;;39.90;30.20;;;11.20;99.90;;;;;;4821299;29;20310;-74
2023/03/18 09:28:07;;;;;;;42.40;29.90;;;11.40;99.90;;;;;;4820158;29;20708;-74
2023/03/18 09:30:33;;;;;;;38.77;29.00;;;11.50;99.90;;;;;;4833063;29;20314;-74
2023/03/18 09:32:59;;;;;;;35.20;27.33;;;11.60;99.90;;;;;;4821547;29;20378;-74
2023/03/18 09:35:25;;;;;;;34.90;28.43;;;11.80;99.90;;;;;;4807082;29;20394;-74
2023/03/18 09:37:50;;;;;;;37.50;28.10;;;12.10;99.90;;;;;;4806937;29;20045;-74
2023/03/18 09:40:30;;;;;;;34.27;27.17;;;12.40;99.90;;;;;;4806588;29;20041;-75
2023/03/18 09:43:04;;;;;;;34.93;26.83;;;12.70;99.90;;;;;;4819196;29;20295;-74
2023/03/18 09:45:53;;;;;;;32.33;25.67;;;12.90;99.90;;;;;;4833258;29;20718;-73
2023/03/18 09:48:34;;;;;;;32.67;25.33;;;13.20;99.90;;;;;;4804434;29;20136;-74
2023/03/18 09:51:42;;;;;;;31.27;24.50;;;13.40;99.90;;;;;;4820239;29;20298;-75
2023/03/18 09:54:11;;;;;;;30.23;23.20;;;13.50;99.90;;;;;;4796169;29;20294;-74
2023/03/18 09:56:38;;;;;;;30.67;24.00;;;13.50;99.90;;;;;;4834648;29;20667;-74
2023/03/18 09:59:23;;;;;;;28.13;21.87;;;13.60;99.90;;;;;;4835980;29;20805;-74
2023/03/18 10:01:54;;;;;;;30.30;22.80;;;13.60;99.90;;;;;;4831682;29;20297;-74
2023/03/18 10:04:27;;;;;;;28.50;22.07;;;13.70;99.90;;;;;;4848385;29;20072;-74
2023/03/18 10:07:01;;;;;;;28.10;23.10;;;13.60;99.90;;;;;;4834077;29;20357;-74
2023/03/18 10:09:40;;;;;;;28.50;22.03;;;13.50;99.90;;;;;;4832339;29;20294;-74
2023/03/18 10:12:26;;;;;;;28.37;21.67;;;13.40;99.90;;;;;;4837311;29;20809;-74
2023/03/18 10:14:51;;;;;;;;;;;13.40;99.90;;;;;;4817325;29;20286;-73
2023/03/18 10:17:30;;;;;;;26.27;21.07;;;13.40;99.90;;;;;;4833729;29;19926;-74
2023/03/18 10:19:59;;;;;;;28.17;19.80;;;13.30;99.90;;;;;;4820285;29;20052;-74
2023/03/18 10:22:50;;;;;;;22.63;20.03;;;13.30;99.90;;;;;;4822137;29;20302;-75
2023/03/18 10:25:27;;;;;;;24.57;17.40;;;13.20;99.90;;;;;;4834187;29;20626;-74
2023/03/18 10:28:02;;;;;;;22.00;17.33;;;13.20;99.90;;;;;;4836621;29;20298;-74
2023/03/18 10:30:28;;;;;;;22.00;15.70;;;13.30;99.90;;;;;;4837964;29;20310;-75
2023/03/18 10:33:03;;;;;;;19.20;16.50;;;13.40;99.90;;;;;;4823466;29;20294;-74
2023/03/18 10:35:47;;;;;;;16.83;14.40;;;13.50;99.90;;;;;;4833641;29;20057;-74
2023/03/18 10:38:25;;;;;;;15.40;12.47;;;13.50;99.90;;;;;;4832458;29;20132;-74
2023/03/18 10:40:52;;;;;;;15.03;11.57;;;13.60;99.90;;;;;;4820999;29;20292;-74
2023/03/18 10:43:21;;;;;;;14.80;11.20;;;13.70;99.90;;;;;;4822934;29;20331;-74
2023/03/18 10:46:10;;;;;;;15.13;11.87;;;13.70;99.90;;;;;;4831912;29;20286;-74
2023/03/18 10:48:39;;;;;;;15.23;11.00;;;13.70;99.90;;;;;;4822270;29;20394;-74
2023/03/18 10:51:08;;;;;;;13.40;11.07;;;13.80;99.90;;;;;;4829711;29;20290;-74
2023/03/18 10:53:54;;;;;;;15.23;10.90;;;13.90;99.90;;;;;;4826960;29;20296;-74
2023/03/18 10:56:21;;;;;;;11.33;8.83;;;14.00;99.90;;;;;;4837351;29;20324;-74
2023/03/18 10:58:47;;;;;;;13.50;11.13;;;14.10;99.90;;;;;;4852203;29;20072;-74
2023/03/18 11:01:16;;;;;;;11.10;9.87;;;14.20;99.90;;;;;;4819948;29;20787;-74
2023/03/18 11:03:49;;;;;;;11.87;9.77;;;14.30;99.90;;;;;;4836995;29;20282;-74
2023/03/18 11:06:20;;;;;;;16.37;12.50;;;14.40;99.90;;;;;;4829928;29;20426;-74
2023/03/18 11:08:47;;;;;;;15.40;12.57;;;14.50;99.90;;;;;;4821014;29;20297;-74
2023/03/18 11:11:13;;;;;;;17.63;13.70;;;14.60;99.90;;;;;;4833550;29;20434;-74
2023/03/18 11:13:45;;;;;;;19.87;13.87;;;14.70;99.90;;;;;;4835410;29;20310;-74
2023/03/18 11:16:21;;;;;;;18.83;14.43;;;14.80;99.90;;;;;;4816884;29;20306;-74
2023/03/18 11:18:50;;;;;;;21.47;13.37;;;14.80;99.90;;;;;;4829520;29;20647;-74
2023/03/18 11:21:16;;;;;;;15.93;12.37;;;14.80;99.90;;;;;;4819100;29;20278;-73
2023/03/18 11:24:06;;;;;;;14.70;10.97;;;14.80;99.90;;;;;;4834377;29;20297;-74
2023/03/18 11:26:44;;;;;;;13.33;10.10;;;14.80;99.90;;;;;;4834226;29;20294;-75
2023/03/18 11:29:25;;;;;;;9.13;7.30;;;15.00;99.90;;;;;;4851386;29;21730;-73
2023/03/18 11:31:56;;;;;;;13.30;9.47;;;15.30;99.90;;;;;;4833706;29;20335;-74
2023/03/18 11:34:27;;;;;;;7.27;5.97;;;15.60;99.90;;;;;;4817952;29;20294;-74
2023/03/18 11:36:59;;;;;;;7.20;5.57;;;15.70;99.90;;;;;;4804420;29;20310;-74
2023/03/18 11:39:28;;;;;;;9.07;5.33;;;15.70;99.90;;;;;;4820811;29;20289;-74
2023/03/18 11:41:54;;;;;;;6.70;5.07;;;15.70;99.90;;;;;;4836879;29;20293;-74
2023/03/18 11:44:38;;;;;;;9.57;5.40;;;15.70;99.90;;;;;;4821829;29;20346;-74
2023/03/18 11:47:22;;;;;;;5.83;3.83;;;15.80;99.90;;;;;;4838226;29;20290;-74
2023/03/18 11:49:48;;;;;;;6.97;4.47;;;15.90;99.90;;;;;;4832983;29;20326;-74
2023/03/18 11:52:40;;;;;;;4.40;3.80;;;16.00;99.90;;;;;;4822057;29;20092;-74
2023/03/18 11:55:33;;;;;;;5.27;3.80;;;16.10;99.90;;;;;;4817095;29;20052;-74
2023/03/18 11:58:17;;;;;;;5.10;3.20;;;16.20;99.90;;;;;;4845154;29;20577;-74
2023/03/18 12:00:59;;;;;;;5.83;3.50;;;16.20;99.90;;;;;;4818962;29;20286;-74
2023/03/18 12:03:46;;;;;;;5.83;3.50;;;16.10;99.90;;;;;;4820955;29;21094;-74
2023/03/18 12:06:22;;;;;;;4.23;2.97;;;16.10;99.90;;;;;;4831541;29;20839;-73
2023/03/18 12:09:18;;;;;;;4.30;2.57;;;16.00;99.90;;;;;;4824145;29;20342;-74
2023/03/18 12:11:50;;;;;;;;;;;16.00;99.90;;;;;;4846581;29;20404;-74
2023/03/18 12:14:39;;;;;;;3.67;2.60;;;16.10;99.90;;;;;;4829398;29;19931;-74
2023/03/18 12:17:34;;;;;;;4.17;3.00;;;16.10;99.90;;;;;;4823355;29;20318;-76
2023/03/18 12:20:31;;;;;;;4.22;2.53;;;16.00;99.90;;;;;;4839339;29;20348;-75
2023/03/18 12:23:10;;;;;;;2.37;2.03;;;16.00;99.90;;;;;;4836736;29;20128;-75
2023/03/18 12:25:53;;;;;;;2.27;1.47;;;16.10;99.90;;;;;;4822488;29;20301;-75
2023/03/18 12:28:31;;;;;;;4.07;1.60;;;16.20;99.90;;;;;;4818847;29;20441;-75
2023/03/18 12:31:24;;;;;;;2.33;1.50;;;16.30;99.90;;;;;;4820693;29;20295;-76
2023/03/18 12:34:00;;;;;;;2.60;1.73;;;16.20;99.90;;;;;;4826634;29;20295;-75
2023/03/18 12:36:43;;;;;;;2.60;1.87;;;16.20;99.90;;;;;;4834216;29;20309;-75
2023/03/18 12:39:32;;;;;;;3.77;2.20;;;16.20;99.90;;;;;;4836970;29;20370;-75
2023/03/18 12:42:41;;;;;;;3.93;1.97;;;16.30;99.90;;;;;;4823842;29;20303;-76
2023/03/18 12:45:15;;;;;;;2.90;2.07;;;16.40;99.90;;;;;;4821020;29;20291;-75
2023/03/18 12:47:59;;;;;;;4.97;3.05;;;16.50;99.90;;;;;;4825700;29;20295;-75